createdAt,value
2022-11-12T00:00:40.128Z,1.00
2022-11-12T00:03:06.904Z,1.08
2022-11-12T00:05:34.232Z,1.10
2022-11-12T00:08:01.491Z,1.05
2022-11-12T00:10:28.306Z,1.35
2022-11-12T00:12:55.209Z,1.20
2022-11-12T00:15:21.990Z,1.00
2022-11-12T00:17:48.703Z,1.00
2022-11-12T00:20:15.691Z,1.02
2022-11-12T00:22:42.497Z,1.00
2022-11-12T00:25:09.324Z,1.00
2022-11-12T00:27:37.520Z,1.00
2022-11-12T00:30:05.603Z,0.90
2022-11-12T00:32:32.355Z,1.02
2022-11-12T00:35:02.486Z,0.95
2022-11-12T00:37:29.626Z,1.20
2022-11-12T00:39:56.330Z,0.95
2022-11-12T00:42:23.041Z,1.35
2022-11-12T00:44:50.035Z,1.10
2022-11-12T00:47:16.909Z,0.77
2022-11-12T00:49:43.662Z,1.00
2022-11-12T00:52:10.366Z,1.13
2022-11-12T00:54:38.689Z,1.00
2022-11-12T00:57:05.404Z,1.10
2022-11-12T00:59:32.119Z,0.90
2022-11-12T01:01:58.862Z,1.10
2022-11-12T01:04:25.624Z,1.00
2022-11-12T01:06:52.417Z,0.90
2022-11-12T01:09:19.195Z,0.85
2022-11-12T01:11:45.913Z,1.10
2022-11-12T01:14:12.798Z,1.20
2022-11-12T01:16:40.432Z,0.90
2022-11-12T01:19:11.189Z,0.80
2022-11-12T01:21:41.447Z,0.90
2022-11-12T01:24:09.669Z,1.10
2022-11-12T01:26:36.702Z,0.95
2022-11-12T01:29:03.737Z,1.20
2022-11-12T01:31:32.428Z,0.90
2022-11-12T01:34:01.047Z,1.00
2022-11-12T01:36:28.328Z,1.20
2022-11-12T01:38:55.585Z,0.88
2022-11-12T01:41:27.297Z,1.02
2022-11-12T01:44:32.776Z,0.93
2022-11-12T01:47:20.483Z,1.10
2022-11-12T01:49:56.827Z,1.00
2022-11-12T01:52:37.239Z,1.23
2022-11-12T01:55:31.404Z,1.00
2022-11-12T01:58:07.290Z,1.00
2022-11-12T02:00:34.014Z,0.98
2022-11-12T02:03:01.635Z,1.08
2022-11-12T02:05:28.876Z,0.98
2022-11-12T02:07:55.677Z,1.10
2022-11-12T02:10:22.410Z,1.10
2022-11-12T02:13:08.020Z,0.90
2022-11-12T02:15:34.816Z,1.00
2022-11-12T02:18:01.546Z,0.90
2022-11-12T02:20:28.248Z,0.90
2022-11-12T02:22:54.939Z,0.90
2022-11-12T02:25:23.369Z,0.90
2022-11-12T02:27:51.874Z,0.80
2022-11-12T02:30:19.565Z,0.85
2022-11-12T02:32:46.272Z,0.85
2022-11-12T02:35:14.215Z,1.20
2022-11-12T02:37:40.935Z,1.00
2022-11-12T02:40:08.677Z,1.05
2022-11-12T02:42:35.427Z,0.80
2022-11-12T02:45:02.185Z,1.10
2022-11-12T02:47:28.889Z,0.75
2022-11-12T02:49:55.608Z,0.80
2022-11-12T02:52:24.779Z,1.00
2022-11-12T02:54:51.568Z,0.80
2022-11-12T02:57:18.323Z,0.90
2022-11-12T02:59:45.931Z,0.90
2022-11-12T03:02:12.897Z,0.90
2022-11-12T03:04:43.180Z,1.10
2022-11-12T03:07:12.192Z,0.80
2022-11-12T03:09:38.920Z,0.93
2022-11-12T03:12:05.902Z,0.90
2022-11-12T03:14:32.654Z,1.08
2022-11-12T03:16:59.369Z,1.02
2022-11-12T03:19:26.074Z,1.05
2022-11-12T03:21:52.814Z,0.60
2022-11-12T03:24:19.529Z,1.10
2022-11-12T03:26:47.178Z,1.10
2022-11-12T03:29:13.945Z,1.27
2022-11-12T03:31:40.653Z,0.80
2022-11-12T03:34:07.394Z,0.88
2022-11-12T03:36:34.122Z,0.80
2022-11-12T03:39:00.896Z,1.00
2022-11-12T03:41:27.637Z,0.80
2022-11-12T03:43:54.377Z,0.90
2022-11-12T03:46:21.119Z,1.17
2022-11-12T03:48:48.831Z,1.10
2022-11-12T03:51:16.698Z,1.00
2022-11-12T03:53:43.536Z,1.20
2022-11-12T03:56:10.315Z,0.90
2022-11-12T03:58:37.011Z,1.00
2022-11-12T04:01:03.854Z,0.90
2022-11-12T04:03:30.583Z,1.10
2022-11-12T04:06:16.027Z,0.90
2022-11-12T04:08:42.789Z,1.00
2022-11-12T04:11:12.869Z,0.95
2022-11-12T04:13:42.034Z,1.10
2022-11-12T04:16:29.733Z,0.90
2022-11-12T04:19:16.471Z,0.95
2022-11-12T04:21:56.805Z,1.08
2022-11-12T04:24:46.041Z,0.90
2022-11-12T04:27:20.082Z,1.00
2022-11-12T04:30:05.638Z,0.98
2022-11-12T04:32:33.276Z,0.90
2022-11-12T04:35:00.169Z,1.10
2022-11-12T04:37:28.067Z,1.00
2022-11-12T04:39:54.875Z,0.90
2022-11-12T04:42:40.027Z,0.93
2022-11-12T04:45:11.201Z,0.82
2022-11-12T04:47:39.519Z,0.82
2022-11-12T04:50:08.956Z,1.00
2022-11-12T04:52:35.664Z,0.90
2022-11-12T04:55:03.321Z,0.98
2022-11-12T04:57:30.043Z,0.90
2022-11-12T04:59:56.855Z,1.08
2022-11-12T05:02:23.662Z,1.00
2022-11-12T05:04:51.402Z,1.02
2022-11-12T05:07:18.268Z,0.95
2022-11-12T05:09:45.100Z,1.00
2022-11-12T05:12:11.879Z,0.80
2022-11-12T05:14:38.658Z,1.00
2022-11-12T05:17:05.610Z,0.82
2022-11-12T05:19:32.419Z,0.90
2022-11-12T05:22:05.284Z,1.08
2022-11-12T05:24:42.980Z,1.10
2022-11-12T05:27:14.982Z,0.90
2022-11-12T05:29:41.713Z,0.90
2022-11-12T05:32:09.058Z,0.93
2022-11-12T05:34:35.848Z,0.82
2022-11-12T05:37:03.014Z,1.00
2022-11-12T05:39:29.794Z,0.90
2022-11-12T05:42:13.778Z,0.90
2022-11-12T05:44:40.987Z,0.88
2022-11-12T05:47:07.822Z,0.90
2022-11-12T05:49:36.369Z,0.90
2022-11-12T05:52:03.150Z,1.10
2022-11-12T05:54:29.870Z,0.93
2022-11-12T05:56:56.618Z,0.93
2022-11-12T05:59:24.769Z,1.00
2022-11-12T06:01:52.098Z,1.02
2022-11-12T06:04:19.498Z,1.10
2022-11-12T06:06:46.263Z,1.08
2022-11-12T06:09:13.098Z,0.80
2022-11-12T06:11:39.852Z,1.00
2022-11-12T06:14:06.645Z,0.98
2022-11-12T06:16:33.405Z,0.77
2022-11-12T06:19:00.265Z,1.00
2022-11-12T06:21:27.924Z,0.98
2022-11-12T06:23:57.119Z,0.88
2022-11-12T06:26:25.402Z,1.00
2022-11-12T06:28:52.444Z,0.90
2022-11-12T06:31:19.346Z,1.10
2022-11-12T06:33:46.276Z,1.08
2022-11-12T06:36:14.818Z,1.00
2022-11-12T06:38:41.855Z,1.05
2022-11-12T06:41:09.913Z,1.10
2022-11-12T06:43:36.826Z,1.10
2022-11-12T06:46:14.385Z,0.90
2022-11-12T06:48:41.356Z,1.00
2022-11-12T06:51:18.699Z,0.80
2022-11-12T06:53:45.678Z,1.00
2022-11-12T06:56:12.645Z,1.08
2022-11-12T06:58:39.614Z,0.70
2022-11-12T07:01:11.499Z,0.80
2022-11-12T07:03:39.596Z,1.10
2022-11-12T07:06:11.207Z,0.80
2022-11-12T07:08:38.072Z,0.90
2022-11-12T07:11:05.435Z,0.80
2022-11-12T07:13:33.406Z,0.73
2022-11-12T07:16:00.624Z,0.90
2022-11-12T07:18:28.308Z,0.90
2022-11-12T07:21:02.218Z,0.95
2022-11-12T07:23:29.962Z,1.15
2022-11-12T07:26:01.910Z,0.90
2022-11-12T07:28:29.039Z,0.93
2022-11-12T07:31:00.366Z,1.00
2022-11-12T07:33:27.409Z,0.98
2022-11-12T07:36:13.629Z,0.80
2022-11-12T07:38:41.626Z,0.98
2022-11-12T07:41:13.013Z,0.98
2022-11-12T07:43:40.189Z,0.93
2022-11-12T07:46:13.594Z,0.85
2022-11-12T07:48:40.693Z,1.00
2022-11-12T07:51:21.019Z,0.88
2022-11-12T07:53:48.321Z,0.88
2022-11-12T07:56:16.947Z,1.00
2022-11-12T07:58:43.895Z,0.90
2022-11-12T08:01:12.592Z,0.80
2022-11-12T08:03:39.388Z,1.02
2022-11-12T08:06:06.436Z,0.90
2022-11-12T08:08:33.224Z,0.95
2022-11-12T08:11:00.029Z,1.00
2022-11-12T08:13:26.785Z,0.90
2022-11-12T08:15:56.871Z,1.00
2022-11-12T08:18:25.377Z,0.90
2022-11-12T08:20:53.257Z,1.10
2022-11-12T08:23:19.964Z,0.95
2022-11-12T08:25:46.734Z,0.80
2022-11-12T08:28:13.477Z,0.80
2022-11-12T08:30:40.215Z,0.77
2022-11-12T08:33:07.311Z,1.10
2022-11-12T08:35:34.228Z,0.85
2022-11-12T08:38:02.696Z,0.90
2022-11-12T08:40:30.388Z,0.80
2022-11-12T08:43:00.932Z,1.13
2022-11-12T08:45:27.995Z,0.90
2022-11-12T08:47:59.506Z,1.05
2022-11-12T08:50:26.637Z,1.00
2022-11-12T08:52:59.006Z,1.20
2022-11-12T08:55:25.717Z,1.33
2022-11-12T08:57:58.685Z,1.05
2022-11-12T09:00:25.683Z,1.13
2022-11-12T09:02:53.234Z,1.20
2022-11-12T09:05:20.526Z,1.30
2022-11-12T09:07:50.395Z,1.20
2022-11-12T09:10:18.220Z,1.10
2022-11-12T09:12:44.959Z,1.10
2022-11-12T09:18:00.073Z,1.40
2022-11-12T09:20:30.503Z,1.33
2022-11-12T09:23:01.396Z,1.20
2022-11-12T09:25:28.433Z,1.48
2022-11-12T09:27:56.913Z,1.50
2022-11-12T09:30:26.633Z,1.30
2022-11-12T09:32:58.326Z,1.50
2022-11-12T09:38:04.661Z,1.48
2022-11-12T09:40:55.306Z,1.73
2022-11-12T09:43:33.636Z,1.70
2022-11-12T09:46:28.306Z,1.30
2022-11-12T09:49:20.425Z,1.55
2022-11-12T09:51:54.140Z,1.38
2022-11-12T09:54:32.201Z,1.35
2022-11-12T09:56:59.214Z,1.58
2022-11-12T09:59:30.526Z,1.38
2022-11-12T10:02:05.378Z,1.45
2022-11-12T10:04:37.706Z,1.60
2022-11-12T10:07:13.672Z,1.52
2022-11-12T10:09:53.369Z,1.80
2022-11-12T10:13:08.594Z,1.83
2022-11-12T10:16:31.131Z,1.60
2022-11-12T10:19:25.897Z,1.83
2022-11-12T10:21:58.445Z,1.70
2022-11-12T10:24:26.595Z,1.83
2022-11-12T10:26:54.476Z,2.22
2022-11-12T10:29:28.555Z,1.73
2022-11-12T10:31:55.999Z,1.55
2022-11-12T10:34:24.160Z,1.90
2022-11-12T10:36:56.842Z,1.63
2022-11-12T10:39:43.145Z,1.50
2022-11-12T10:42:14.155Z,1.50
2022-11-12T10:44:42.430Z,1.77
2022-11-12T10:47:31.944Z,1.75
2022-11-12T10:50:04.825Z,1.73
2022-11-12T10:52:31.894Z,1.70
2022-11-12T10:55:16.159Z,1.58
2022-11-12T10:57:42.885Z,1.55
2022-11-12T11:00:12.661Z,1.55
2022-11-12T11:02:54.291Z,1.50
2022-11-12T11:05:30.874Z,1.77
2022-11-12T11:07:57.860Z,1.70
2022-11-12T11:10:28.595Z,1.75
2022-11-12T11:13:18.876Z,1.90
2022-11-12T11:16:04.201Z,1.55
2022-11-12T11:18:32.826Z,1.40
2022-11-12T11:21:14.872Z,1.65
2022-11-12T11:23:56.464Z,1.38
2022-11-12T11:26:46.511Z,1.63
2022-11-12T11:29:26.381Z,1.40
2022-11-12T11:31:59.894Z,1.58
2022-11-12T11:34:57.360Z,1.48
2022-11-12T11:37:27.146Z,1.70
2022-11-12T11:40:18.388Z,1.42
2022-11-12T11:42:57.250Z,1.27
2022-11-12T11:45:28.199Z,1.50
2022-11-12T11:48:02.704Z,1.33
2022-11-12T11:50:29.945Z,1.63
2022-11-12T11:53:17.897Z,1.52
2022-11-12T11:55:48.341Z,1.55
2022-11-12T11:58:45.258Z,1.52
2022-11-12T12:01:34.280Z,1.50
2022-11-12T12:04:32.414Z,1.30
2022-11-12T12:07:25.290Z,1.60
2022-11-12T12:10:19.362Z,1.38
2022-11-12T12:13:00.586Z,1.42
2022-11-12T12:15:36.958Z,1.50
2022-11-12T12:18:36.377Z,1.20
2022-11-12T12:21:11.548Z,1.35
2022-11-12T12:23:40.842Z,1.70
2022-11-12T12:26:22.040Z,1.50
2022-11-12T12:28:56.938Z,1.42
2022-11-12T12:31:29.612Z,1.10
2022-11-12T12:33:59.164Z,1.20
2022-11-12T12:36:47.526Z,1.17
2022-11-12T12:39:18.475Z,1.20
2022-11-12T12:42:03.674Z,1.10
2022-11-12T12:44:54.414Z,1.30
2022-11-12T12:47:21.653Z,1.10
2022-11-12T12:49:48.379Z,1.30
2022-11-12T12:52:17.908Z,1.40
2022-11-12T12:54:50.776Z,1.30
2022-11-12T12:57:27.447Z,1.50
2022-11-12T13:00:32.192Z,1.40
2022-11-12T13:02:59.018Z,4.95
2022-11-12T13:05:36.253Z,5.68
2022-11-12T13:08:13.492Z,5.82
2022-11-12T13:10:41.358Z,5.90
2022-11-12T13:13:20.000Z,5.57
2022-11-12T13:15:56.968Z,5.78
2022-11-12T13:18:50.063Z,5.03
2022-11-12T13:21:17.990Z,5.20
2022-11-12T13:24:08.595Z,5.70
2022-11-12T13:26:48.718Z,5.38
2022-11-12T13:29:28.108Z,5.50
2022-11-12T13:32:32.614Z,4.70
2022-11-12T13:35:17.909Z,4.85
2022-11-12T13:37:45.362Z,4.35
2022-11-12T13:40:26.893Z,4.28
2022-11-12T13:42:53.808Z,4.40
2022-11-12T13:45:24.586Z,4.00
2022-11-12T13:47:51.428Z,4.00
2022-11-12T13:50:22.514Z,3.92
2022-11-12T13:52:49.478Z,4.07
2022-11-12T13:55:17.825Z,3.83
2022-11-12T13:57:51.323Z,4.55
2022-11-12T14:00:18.079Z,4.07
2022-11-12T14:02:45.894Z,4.05
2022-11-12T14:05:16.973Z,3.53
2022-11-12T14:07:50.427Z,3.72
2022-11-12T14:10:57.262Z,3.70
2022-11-12T14:13:35.252Z,3.38
2022-11-12T14:16:29.925Z,3.78
2022-11-12T14:19:28.537Z,4.00
2022-11-12T14:22:15.379Z,3.78
2022-11-12T14:24:42.205Z,3.38
2022-11-12T14:27:28.805Z,3.78
2022-11-12T14:30:08.135Z,3.50
2022-11-12T14:32:38.299Z,3.20
2022-11-12T14:35:28.518Z,3.15
2022-11-12T14:37:58.788Z,3.45
2022-11-12T14:40:28.452Z,3.22
2022-11-12T14:42:55.176Z,3.30
2022-11-12T14:45:22.273Z,3.22
2022-11-12T14:47:50.319Z,2.83
2022-11-12T14:50:23.737Z,3.38
2022-11-12T14:52:56.991Z,3.25
2022-11-12T14:55:30.564Z,2.90
2022-11-12T14:57:59.399Z,2.60
2022-11-12T15:00:32.044Z,2.92
2022-11-12T15:03:00.153Z,2.78
2022-11-12T15:05:28.574Z,2.92
2022-11-12T15:08:02.503Z,2.60
2022-11-12T15:10:40.141Z,2.45
2022-11-12T15:13:10.577Z,2.65
2022-11-12T15:16:01.232Z,2.60
2022-11-12T15:18:30.431Z,2.50
2022-11-12T15:21:12.170Z,2.30
2022-11-12T15:23:49.047Z,2.20
2022-11-12T15:26:25.107Z,2.40
2022-11-12T15:29:02.650Z,2.45
2022-11-12T15:31:29.387Z,1.92
2022-11-12T15:33:57.755Z,2.30
2022-11-12T15:36:24.647Z,2.55
2022-11-12T15:38:54.268Z,2.50
2022-11-12T15:41:29.403Z,2.45
2022-11-12T15:43:57.566Z,2.13
2022-11-12T15:46:24.294Z,1.92
2022-11-12T15:48:55.847Z,2.22
2022-11-12T15:51:23.598Z,1.90
2022-11-12T15:53:50.302Z,1.95
2022-11-12T15:56:18.267Z,1.90
2022-11-12T15:58:45.083Z,2.00
2022-11-12T16:01:11.877Z,1.90
2022-11-12T16:03:38.908Z,1.92
2022-11-12T16:06:09.247Z,1.88
2022-11-12T16:08:36.300Z,1.85
2022-11-12T16:11:03.140Z,2.25
2022-11-12T16:13:31.386Z,1.90
2022-11-12T16:15:59.115Z,1.85
2022-11-12T16:18:26.650Z,1.80
2022-11-12T16:20:54.192Z,2.05
2022-11-12T16:23:20.919Z,1.60
2022-11-12T16:25:47.665Z,1.90
2022-11-12T16:28:15.556Z,1.92
2022-11-12T16:30:42.439Z,1.90
2022-11-12T16:33:12.486Z,1.75
2022-11-12T16:35:39.225Z,1.88
2022-11-12T16:38:12.419Z,1.90
2022-11-12T16:40:40.274Z,1.85
2022-11-12T16:43:07.054Z,1.75
2022-11-12T16:45:39.077Z,1.98
2022-11-12T16:48:16.790Z,2.03
2022-11-12T16:50:43.633Z,1.40
2022-11-12T16:53:10.344Z,1.70
2022-11-12T16:55:37.099Z,1.63
2022-11-12T16:58:03.829Z,1.77
2022-11-12T17:00:30.565Z,1.60
2022-11-12T17:02:58.637Z,1.60
2022-11-12T17:05:26.059Z,2.00
2022-11-12T17:07:58.002Z,1.98
2022-11-12T17:10:25.397Z,1.90
2022-11-12T17:12:52.759Z,1.58
2022-11-12T17:15:19.551Z,1.65
2022-11-12T17:17:46.262Z,1.80
2022-11-12T17:20:12.999Z,1.73
2022-11-12T17:22:39.714Z,1.75
2022-11-12T17:25:07.017Z,1.90
2022-11-12T17:27:33.781Z,1.85
2022-11-12T17:30:00.527Z,1.80
2022-11-12T17:32:28.833Z,1.70
2022-11-12T17:34:55.555Z,1.80
2022-11-12T17:37:22.274Z,1.85
2022-11-12T17:39:49.281Z,1.85
2022-11-12T17:42:15.997Z,1.45
2022-11-12T17:44:42.828Z,1.52
2022-11-12T17:47:09.534Z,1.65
2022-11-12T17:49:36.241Z,1.70
2022-11-12T17:52:03.054Z,1.42
2022-11-12T17:54:29.839Z,1.58
2022-11-12T17:56:58.056Z,1.50
2022-11-12T17:59:24.851Z,1.73
2022-11-12T18:01:51.618Z,1.40
2022-11-12T18:04:18.347Z,1.67
2022-11-12T18:06:45.148Z,1.70
2022-11-12T18:09:15.541Z,1.58
2022-11-12T18:11:51.157Z,1.65
2022-11-12T18:14:17.896Z,1.70
2022-11-12T18:16:44.720Z,1.63
2022-11-12T18:19:12.477Z,1.70
2022-11-12T18:21:39.690Z,1.70
2022-11-12T18:24:07.073Z,1.88
2022-11-12T18:26:33.850Z,1.70
2022-11-12T18:29:00.675Z,1.50
2022-11-12T18:31:29.316Z,1.77
2022-11-12T18:33:56.212Z,1.88
2022-11-12T18:36:24.729Z,1.77
2022-11-12T18:38:52.582Z,1.40
2022-11-12T18:41:22.420Z,1.50
2022-11-12T18:43:49.204Z,1.52
2022-11-12T18:46:15.949Z,1.63
2022-11-12T18:48:42.730Z,1.77
2022-11-12T18:51:11.381Z,1.95
2022-11-12T18:53:38.781Z,1.70
2022-11-12T18:56:07.616Z,1.48
2022-11-12T18:58:35.512Z,1.88
2022-11-12T19:01:07.436Z,1.45
2022-11-12T19:03:34.782Z,1.92
2022-11-12T19:06:02.439Z,1.60
2022-11-12T19:08:30.705Z,1.55
2022-11-12T19:11:06.070Z,1.88
2022-11-12T19:13:34.047Z,1.83
2022-11-12T19:16:27.494Z,1.60
2022-11-12T19:18:54.315Z,1.63
2022-11-12T19:21:25.108Z,1.48
2022-11-12T19:23:54.587Z,1.52
2022-11-12T19:26:22.330Z,1.80
2022-11-12T19:28:49.529Z,1.60
2022-11-12T19:31:18.133Z,1.90
2022-11-12T19:33:45.228Z,1.67
2022-11-12T19:36:15.858Z,1.73
2022-11-12T19:38:43.176Z,2.10
2022-11-12T19:41:19.025Z,1.67
2022-11-12T19:43:46.825Z,1.92
2022-11-12T19:46:14.465Z,1.27
2022-11-12T19:48:41.343Z,1.67
2022-11-12T19:51:08.950Z,2.10
2022-11-12T19:53:46.577Z,3.53
2022-11-12T19:56:16.921Z,1.88
2022-11-12T19:58:47.217Z,1.77
2022-11-12T20:01:16.198Z,1.88
2022-11-12T20:03:42.997Z,2.00
2022-11-12T20:06:11.964Z,1.60
2022-11-12T20:08:39.021Z,1.80
2022-11-12T20:11:06.002Z,1.40
2022-11-12T20:13:33.730Z,1.70
2022-11-12T20:16:06.091Z,1.58
2022-11-12T20:18:34.071Z,1.60
2022-11-12T20:21:03.633Z,1.40
2022-11-12T20:23:32.498Z,1.60
2022-11-12T20:26:10.008Z,1.67
2022-11-12T20:28:37.444Z,1.50
2022-11-12T20:31:12.169Z,1.35
2022-11-12T20:33:42.490Z,1.73
2022-11-12T20:36:13.553Z,1.60
2022-11-12T20:38:41.567Z,1.75
2022-11-12T20:41:11.218Z,1.90
2022-11-12T20:43:37.977Z,1.70
2022-11-12T20:46:04.746Z,1.50
2022-11-12T20:48:33.561Z,1.75
2022-11-12T20:51:25.052Z,1.98
2022-11-12T20:53:59.835Z,1.85
2022-11-12T20:56:29.122Z,1.80
2022-11-12T20:58:56.081Z,1.70
2022-11-12T21:01:23.701Z,1.92
2022-11-12T21:03:50.723Z,1.77
2022-11-12T21:06:19.953Z,1.70
2022-11-12T21:08:46.960Z,1.65
2022-11-12T21:11:15.140Z,1.80
2022-11-12T21:13:42.060Z,1.52
2022-11-12T21:16:09.064Z,1.48
2022-11-12T21:18:36.270Z,1.70
2022-11-12T21:21:08.646Z,1.90
2022-11-12T21:23:37.037Z,1.70
2022-11-12T21:26:05.431Z,1.52
2022-11-12T21:28:34.982Z,1.80
2022-11-12T21:31:06.132Z,1.48
2022-11-12T21:33:34.860Z,1.27
2022-11-12T21:36:03.319Z,1.60
2022-11-12T21:38:30.393Z,1.92
2022-11-12T21:41:11.287Z,1.50
2022-11-12T21:43:39.001Z,1.40
2022-11-12T21:46:15.328Z,1.50
2022-11-12T21:48:42.607Z,1.45
2022-11-12T21:51:14.041Z,1.60
2022-11-12T21:53:41.113Z,1.13
2022-11-12T21:56:12.632Z,1.35
2022-11-12T21:58:39.730Z,1.35
2022-11-12T22:01:13.935Z,1.52
2022-11-12T22:03:40.817Z,1.50
2022-11-12T22:06:07.888Z,1.33
2022-11-12T22:08:37.155Z,1.40
2022-11-12T22:11:07.216Z,1.50
2022-11-12T22:13:34.608Z,1.10
2022-11-12T22:16:10.503Z,1.20
2022-11-12T22:18:37.851Z,1.30
2022-11-12T22:21:12.021Z,1.40
2022-11-12T22:23:38.967Z,1.65
2022-11-12T22:26:09.873Z,1.20
2022-11-12T22:28:38.100Z,1.40
2022-11-12T22:31:06.479Z,1.25
2022-11-12T22:33:33.546Z,1.30
2022-11-12T22:36:04.560Z,1.33
2022-11-12T22:38:38.727Z,1.40
2022-11-12T22:41:08.472Z,1.27
2022-11-12T22:43:37.683Z,1.30
2022-11-12T22:46:07.145Z,1.50
2022-11-12T22:48:34.651Z,1.30
2022-11-12T22:51:02.435Z,1.20
2022-11-12T22:53:29.285Z,1.13
2022-11-12T22:55:55.990Z,1.17
2022-11-12T22:58:22.734Z,1.20
2022-11-12T23:00:49.542Z,1.20
2022-11-12T23:03:16.247Z,1.33
2022-11-12T23:05:42.952Z,1.13
2022-11-12T23:08:10.107Z,1.20
2022-11-12T23:10:39.405Z,1.27
2022-11-12T23:13:10.544Z,1.40
2022-11-12T23:15:37.258Z,1.23
2022-11-12T23:18:03.980Z,1.15
2022-11-12T23:20:31.311Z,0.98
2022-11-12T23:22:58.029Z,1.35
2022-11-12T23:25:24.741Z,1.20
2022-11-12T23:27:51.423Z,1.50
2022-11-12T23:30:18.160Z,1.25
2022-11-12T23:32:44.879Z,1.27
2022-11-12T23:35:12.332Z,1.42
2022-11-12T23:37:40.263Z,1.30
2022-11-12T23:40:07.906Z,1.30
2022-11-12T23:42:34.642Z,1.25
2022-11-12T23:45:01.361Z,1.15
2022-11-12T23:47:28.074Z,1.25
2022-11-12T23:49:54.799Z,1.20
2022-11-12T23:52:21.500Z,1.15
2022-11-12T23:54:48.216Z,1.02
2022-11-12T23:57:14.959Z,1.40
2022-11-12T23:59:42.880Z,1.20
